sensor_id;sensor_type;location;lat;lon;timestamp;pressure;altitude;pressure_sealevel;temperature;humidity
57086;BME280;42964;42.910;23.792;2023-03-04T00:01:40;97743.22;;;6.64;90.11
57086;BME280;42964;42.910;23.792;2023-03-04T00:06:39;97737.97;;;6.57;90.59
57086;BME280;42964;42.910;23.792;2023-03-04T00:11:38;97725.03;;;6.56;90.77
57086;BME280;42964;42.910;23.792;2023-03-04T00:16:37;97734.53;;;6.57;90.06
57086;BME280;42964;42.910;23.792;2023-03-04T00:21:36;97727.41;;;6.42;91.34
57086;BME280;42964;42.910;23.792;2023-03-04T00:26:35;97724.75;;;6.36;91.28
57086;BME280;42964;42.910;23.792;2023-03-04T00:31:34;97726.63;;;6.45;91.48
57086;BME280;42964;42.910;23.792;2023-03-04T00:36:33;97725.41;;;6.23;91.79
57086;BME280;42964;42.910;23.792;2023-03-04T00:41:32;97721.81;;;6.13;93.03
57086;BME280;42964;42.910;23.792;2023-03-04T00:46:31;97726.13;;;6.12;92.97
57086;BME280;42964;42.910;23.792;2023-03-04T00:51:30;97711.66;;;6.22;92.47
57086;BME280;42964;42.910;23.792;2023-03-04T00:56:28;97712.63;;;6.30;92.00
57086;BME280;42964;42.910;23.792;2023-03-04T01:01:28;97718.53;;;6.23;92.95
57086;BME280;42964;42.910;23.792;2023-03-04T01:06:27;97713.50;;;6.29;92.44
57086;BME280;42964;42.910;23.792;2023-03-04T01:11:25;97710.19;;;6.39;91.66
57086;BME280;42964;42.910;23.792;2023-03-04T01:16:24;97683.56;;;6.37;91.50
57086;BME280;42964;42.910;23.792;2023-03-04T01:21:23;97697.38;;;6.43;90.67
57086;BME280;42964;42.910;23.792;2023-03-04T01:26:22;97696.47;;;6.40;91.61
57086;BME280;42964;42.910;23.792;2023-03-04T01:31:21;97691.28;;;6.37;91.32
57086;BME280;42964;42.910;23.792;2023-03-04T01:36:20;97673.97;;;6.30;90.82
57086;BME280;42964;42.910;23.792;2023-03-04T01:41:24;97687.66;;;6.25;90.57
57086;BME280;42964;42.910;23.792;2023-03-04T01:46:23;97685.78;;;6.14;91.20
57086;BME280;42964;42.910;23.792;2023-03-04T01:51:22;97686.59;;;6.10;91.27
57086;BME280;42964;42.910;23.792;2023-03-04T01:56:28;97678.00;;;6.11;90.82
57086;BME280;42964;42.910;23.792;2023-03-04T02:01:28;97677.91;;;6.05;91.64
57086;BME280;42964;42.910;23.792;2023-03-04T02:06:27;97677.91;;;6.07;91.93
57086;BME280;42964;42.910;23.792;2023-03-04T02:11:25;97683.81;;;6.00;91.50
57086;BME280;42964;42.910;23.792;2023-03-04T02:16:25;97665.44;;;5.78;92.97
57086;BME280;42964;42.910;23.792;2023-03-04T02:21:29;97680.97;;;5.83;92.18
57086;BME280;42964;42.910;23.792;2023-03-04T02:26:31;97654.03;;;5.62;92.28
57086;BME280;42964;42.910;23.792;2023-03-04T02:31:40;97657.66;;;5.72;92.72
57086;BME280;42964;42.910;23.792;2023-03-04T02:36:40;97662.88;;;5.78;92.23
57086;BME280;42964;42.910;23.792;2023-03-04T02:41:40;97662.81;;;5.72;92.94
57086;BME280;42964;42.910;23.792;2023-03-04T02:46:38;97668.97;;;5.82;93.68
57086;BME280;42964;42.910;23.792;2023-03-04T02:51:38;97635.41;;;5.79;92.83
57086;BME280;42964;42.910;23.792;2023-03-04T02:56:36;97664.00;;;5.94;93.21
57086;BME280;42964;42.910;23.792;2023-03-04T03:01:35;97628.72;;;5.88;93.19
57086;BME280;42964;42.910;23.792;2023-03-04T03:06:34;97659.06;;;6.09;92.67
57086;BME280;42964;42.910;23.792;2023-03-04T03:11:34;97666.06;;;6.16;92.44
57086;BME280;42964;42.910;23.792;2023-03-04T03:16:33;97648.84;;;6.14;92.54
57086;BME280;42964;42.910;23.792;2023-03-04T03:21:32;97660.03;;;6.16;91.89
57086;BME280;42964;42.910;23.792;2023-03-04T03:26:31;97661.72;;;6.14;92.36
57086;BME280;42964;42.910;23.792;2023-03-04T03:31:30;97657.53;;;6.21;92.03
57086;BME280;42964;42.910;23.792;2023-03-04T03:36:29;97653.31;;;6.27;92.32
57086;BME280;42964;42.910;23.792;2023-03-04T03:41:28;97660.31;;;6.33;91.42
57086;BME280;42964;42.910;23.792;2023-03-04T03:46:27;97664.63;;;6.37;91.34
57086;BME280;42964;42.910;23.792;2023-03-04T03:51:26;97648.28;;;6.33;91.92
57086;BME280;42964;42.910;23.792;2023-03-04T03:56:25;97663.03;;;6.45;90.85
57086;BME280;42964;42.910;23.792;2023-03-04T04:01:24;97662.97;;;6.42;91.30
57086;BME280;42964;42.910;23.792;2023-03-04T04:06:23;97662.94;;;6.39;91.65
57086;BME280;42964;42.910;23.792;2023-03-04T04:11:22;97644.56;;;6.16;91.07
57086;BME280;42964;42.910;23.792;2023-03-04T04:16:21;97661.22;;;6.38;91.99
57086;BME280;42964;42.910;23.792;2023-03-04T04:21:19;97660.41;;;6.40;90.69
57086;BME280;42964;42.910;23.792;2023-03-04T04:26:18;97661.28;;;6.43;90.95
57086;BME280;42964;42.910;23.792;2023-03-04T04:31:17;97665.44;;;6.34;90.09
57086;BME280;42964;42.910;23.792;2023-03-04T04:36:16;97660.31;;;6.34;90.76
57086;BME280;42964;42.910;23.792;2023-03-04T04:41:22;97668.13;;;6.42;91.14
57086;BME280;42964;42.910;23.792;2023-03-04T04:46:21;97663.09;;;6.50;90.69
57086;BME280;42964;42.910;23.792;2023-03-04T04:51:20;97663.94;;;6.49;90.51
57086;BME280;42964;42.910;23.792;2023-03-04T04:56:22;97666.53;;;6.50;89.77
57086;BME280;42964;42.910;23.792;2023-03-04T05:01:24;97679.38;;;6.46;90.47
57086;BME280;42964;42.910;23.792;2023-03-04T05:06:23;97686.28;;;6.48;90.75
57086;BME280;42964;42.910;23.792;2023-03-04T05:11:23;97692.16;;;6.38;90.38
57086;BME280;42964;42.910;23.792;2023-03-04T05:16:22;97683.34;;;6.24;91.05
57086;BME280;42964;42.910;23.792;2023-03-04T05:21:20;97689.31;;;6.19;90.72
57086;BME280;42964;42.910;23.792;2023-03-04T05:26:19;97688.59;;;6.28;90.45
57086;BME280;42964;42.910;23.792;2023-03-04T05:31:18;97694.56;;;6.27;90.75
57086;BME280;42964;42.910;23.792;2023-03-04T05:36:17;97652.00;;;5.96;90.81
57086;BME280;42964;42.910;23.792;2023-03-04T05:41:16;97702.22;;;6.21;91.06
57086;BME280;42964;42.910;23.792;2023-03-04T05:46:18;97693.53;;;6.16;91.81
57086;BME280;42964;42.910;23.792;2023-03-04T05:51:22;97709.19;;;6.30;91.39
57086;BME280;42964;42.910;23.792;2023-03-04T05:56:21;97704.16;;;6.36;90.93
57086;BME280;42964;42.910;23.792;2023-03-04T06:01:20;97701.75;;;6.48;91.11
57086;BME280;42964;42.910;23.792;2023-03-04T06:06:19;97704.44;;;6.57;91.74
57086;BME280;42964;42.910;23.792;2023-03-04T06:11:18;97704.59;;;6.70;91.12
57086;BME280;42964;42.910;23.792;2023-03-04T06:16:17;97708.19;;;6.81;90.43
57086;BME280;42964;42.910;23.792;2023-03-04T06:21:16;97718.50;;;6.78;88.70
57086;BME280;42964;42.910;23.792;2023-03-04T06:26:15;97719.47;;;6.88;90.52
57086;BME280;42964;42.910;23.792;2023-03-04T06:31:14;97712.00;;;7.09;89.13
57086;BME280;42964;42.910;23.792;2023-03-04T06:36:13;97716.47;;;7.22;88.81
57086;BME280;42964;42.910;23.792;2023-03-04T06:41:12;97719.97;;;7.31;89.39
57086;BME280;42964;42.910;23.792;2023-03-04T06:46:12;97723.66;;;7.48;88.39
57086;BME280;42964;42.910;23.792;2023-03-04T06:51:11;97717.81;;;7.66;86.53
57086;BME280;42964;42.910;23.792;2023-03-04T06:56:11;97727.44;;;7.81;84.12
57086;BME280;42964;42.910;23.792;2023-03-04T07:06:16;97734.22;;;7.73;84.48
57086;BME280;42964;42.910;23.792;2023-03-04T07:11:15;97730.09;;;7.92;84.50
57086;BME280;42964;42.910;23.792;2023-03-04T07:16:18;97722.47;;;8.05;81.05
57086;BME280;42964;42.910;23.792;2023-03-04T07:21:17;97722.59;;;8.18;83.32
57086;BME280;42964;42.910;23.792;2023-03-04T07:26:16;97696.63;;;8.02;83.69
57086;BME280;42964;42.910;23.792;2023-03-04T07:31:25;97725.22;;;8.27;82.53
57086;BME280;42964;42.910;23.792;2023-03-04T07:36:27;97722.84;;;8.56;82.62
57086;BME280;42964;42.910;23.792;2023-03-04T07:41:27;97716.00;;;8.61;81.27
57086;BME280;42964;42.910;23.792;2023-03-04T07:46:27;97715.09;;;8.53;79.01
57086;BME280;42964;42.910;23.792;2023-03-04T07:51:26;97627.78;;;8.14;81.18
57086;BME280;42964;42.910;23.792;2023-03-04T07:56:30;97710.00;;;8.67;78.60
57086;BME280;42964;42.910;23.792;2023-03-04T08:01:32;97704.00;;;8.77;80.57
57086;BME280;42964;42.910;23.792;2023-03-04T08:06:32;97662.53;;;8.62;77.62
57086;BME280;42964;42.910;23.792;2023-03-04T08:11:32;97709.41;;;9.23;78.92
57086;BME280;42964;42.910;23.792;2023-03-04T08:16:32;97688.66;;;9.14;74.58
57086;BME280;42964;42.910;23.792;2023-03-04T08:21:31;97712.06;;;9.40;77.76
57086;BME280;42964;42.910;23.792;2023-03-04T08:26:34;97698.31;;;9.67;78.65
57086;BME280;42964;42.910;23.792;2023-03-04T08:31:33;97694.00;;;9.88;77.74
57086;BME280;42964;42.910;23.792;2023-03-04T08:36:32;97700.94;;;10.16;75.40
57086;BME280;42964;42.910;23.792;2023-03-04T08:41:31;97698.34;;;10.36;73.55
57086;BME280;42964;42.910;23.792;2023-03-04T08:46:30;97690.53;;;10.30;71.81
57086;BME280;42964;42.910;23.792;2023-03-04T08:51:29;97683.63;;;10.43;71.34
57086;BME280;42964;42.910;23.792;2023-03-04T08:56:28;97687.06;;;10.56;72.59
57086;BME280;42964;42.910;23.792;2023-03-04T09:01:27;97670.56;;;10.78;68.32
57086;BME280;42964;42.910;23.792;2023-03-04T09:06:26;97646.31;;;10.96;71.21
57086;BME280;42964;42.910;23.792;2023-03-04T09:11:25;97665.84;;;11.65;70.75
57086;BME280;42964;42.910;23.792;2023-03-04T09:16:24;97636.13;;;12.00;65.78
57086;BME280;42964;42.910;23.792;2023-03-04T09:21:23;97649.59;;;12.45;64.14
57086;BME280;42964;42.910;23.792;2023-03-04T09:26:25;97646.13;;;12.44;60.51
57086;BME280;42964;42.910;23.792;2023-03-04T09:31:25;97642.59;;;12.48;59.81
57086;BME280;42964;42.910;23.792;2023-03-04T09:36:24;97641.06;;;12.30;57.64
57086;BME280;42964;42.910;23.792;2023-03-04T09:41:24;97636.03;;;12.06;58.60
57086;BME280;42964;42.910;23.792;2023-03-04T09:46:36;97629.25;;;11.93;58.78
57086;BME280;42964;42.910;23.792;2023-03-04T09:51:40;97623.31;;;11.77;57.79
57086;BME280;42964;42.910;23.792;2023-03-04T09:56:41;97608.03;;;11.31;56.78
57086;BME280;42964;42.910;23.792;2023-03-04T10:06:43;97609.69;;;11.45;57.85
57086;BME280;42964;42.910;23.792;2023-03-04T10:12:01;97600.09;;;11.48;58.97
57086;BME280;42964;42.910;23.792;2023-03-04T10:17:23;97590.31;;;11.83;62.94
57086;BME280;42964;42.910;23.792;2023-03-04T10:22:32;97583.16;;;12.04;61.07
57086;BME280;42964;42.910;23.792;2023-03-04T10:27:32;97574.28;;;12.25;57.34
57086;BME280;42964;42.910;23.792;2023-03-04T10:32:32;97570.41;;;11.81;56.95
57086;BME280;42964;42.910;23.792;2023-03-04T10:37:44;97557.38;;;11.85;57.18
57086;BME280;42964;42.910;23.792;2023-03-04T10:42:48;97551.00;;;12.13;57.79
57086;BME280;42964;42.910;23.792;2023-03-04T10:47:54;97544.84;;;11.27;56.32
57086;BME280;42964;42.910;23.792;2023-03-04T10:52:54;97535.44;;;11.11;57.99
57086;BME280;42964;42.910;23.792;2023-03-04T10:58:03;97533.59;;;11.23;56.72
57086;BME280;42964;42.910;23.792;2023-03-04T11:03:22;97513.91;;;10.96;57.42
57086;BME280;42964;42.910;23.792;2023-03-04T11:08:27;97510.19;;;11.28;56.16
57086;BME280;42964;42.910;23.792;2023-03-04T11:13:26;97490.13;;;11.47;57.00
57086;BME280;42964;42.910;23.792;2023-03-04T11:18:41;97491.13;;;11.32;57.23
57086;BME280;42964;42.910;23.792;2023-03-04T11:28:53;97475.50;;;11.35;57.47
57086;BME280;42964;42.910;23.792;2023-03-04T11:34:04;97458.03;;;11.53;55.02
57086;BME280;42964;42.910;23.792;2023-03-04T11:39:17;97451.00;;;11.61;55.60
57086;BME280;42964;42.910;23.792;2023-03-04T11:44:18;97443.84;;;11.84;54.88
57086;BME280;42964;42.910;23.792;2023-03-04T12:10:21;97405.28;;;13.82;50.87
57086;BME280;42964;42.910;23.792;2023-03-04T12:15:27;97402.31;;;13.56;49.29
57086;BME280;42964;42.910;23.792;2023-03-04T12:25:46;97353.44;;;13.20;50.17
57086;BME280;42964;42.910;23.792;2023-03-04T12:41:57;97374.47;;;13.59;48.18
57086;BME280;42964;42.910;23.792;2023-03-04T12:47:18;97370.75;;;13.24;48.38
57086;BME280;42964;42.910;23.792;2023-03-04T12:57:38;97348.66;;;13.88;50.20
57086;BME280;42964;42.910;23.792;2023-03-04T13:03:09;97340.16;;;14.19;48.81
57086;BME280;42964;42.910;23.792;2023-03-04T13:08:30;97286.34;;;14.15;48.30
57086;BME280;42964;42.910;23.792;2023-03-04T13:13:37;97331.69;;;14.48;45.71
57086;BME280;42964;42.910;23.792;2023-03-04T13:18:36;97319.69;;;14.41;46.10
57086;BME280;42964;42.910;23.792;2023-03-04T13:23:39;97315.44;;;14.35;45.25
57086;BME280;42964;42.910;23.792;2023-03-04T13:28:38;97310.31;;;14.32;43.81
57086;BME280;42964;42.910;23.792;2023-03-04T13:38:36;97300.25;;;14.53;45.14
57086;BME280;42964;42.910;23.792;2023-03-04T13:43:42;97295.91;;;14.52;44.83
57086;BME280;42964;42.910;23.792;2023-03-04T13:48:41;97288.25;;;14.46;44.65
57086;BME280;42964;42.910;23.792;2023-03-04T13:53:47;97293.69;;;14.36;45.04
57086;BME280;42964;42.910;23.792;2023-03-04T13:59:19;97290.78;;;14.10;45.93
57086;BME280;42964;42.910;23.792;2023-03-04T14:04:27;97281.13;;;14.15;45.78
57086;BME280;42964;42.910;23.792;2023-03-04T14:09:29;97278.97;;;13.93;45.44
57086;BME280;42964;42.910;23.792;2023-03-04T14:14:34;97278.03;;;13.57;46.08
57086;BME280;42964;42.910;23.792;2023-03-04T14:19:42;97276.69;;;13.36;46.96
57086;BME280;42964;42.910;23.792;2023-03-04T14:25:04;97268.97;;;13.31;46.63
57086;BME280;42964;42.910;23.792;2023-03-04T14:35:23;97266.50;;;12.77;47.56
57086;BME280;42964;42.910;23.792;2023-03-04T14:40:28;97246.13;;;12.51;49.16
57086;BME280;42964;42.910;23.792;2023-03-04T14:45:28;97266.75;;;12.62;49.29
57086;BME280;42964;42.910;23.792;2023-03-04T14:50:27;97264.19;;;12.60;48.83
57086;BME280;42964;42.910;23.792;2023-03-04T14:55:26;97263.69;;;12.37;48.66
57086;BME280;42964;42.910;23.792;2023-03-04T15:00:29;97271.72;;;12.21;49.50
57086;BME280;42964;42.910;23.792;2023-03-04T15:05:33;97271.72;;;12.23;49.88
57086;BME280;42964;42.910;23.792;2023-03-04T15:10:35;97220.13;;;11.94;50.25
57086;BME280;42964;42.910;23.792;2023-03-04T15:15:44;97259.63;;;12.19;49.83
57086;BME280;42964;42.910;23.792;2023-03-04T15:20:52;97251.09;;;12.09;50.42
57086;BME280;42964;42.910;23.792;2023-03-04T15:25:57;97247.78;;;11.98;50.16
57086;BME280;42964;42.910;23.792;2023-03-04T15:30:56;97240.91;;;11.94;50.07
57086;BME280;42964;42.910;23.792;2023-03-04T15:35:58;97246.25;;;11.86;49.92
57086;BME280;42964;42.910;23.792;2023-03-04T15:40:58;97229.06;;;11.74;50.16
57086;BME280;42964;42.910;23.792;2023-03-04T15:45:57;97228.28;;;11.67;49.78
57086;BME280;42964;42.910;23.792;2023-03-04T15:50:58;97243.00;;;11.68;50.13
57086;BME280;42964;42.910;23.792;2023-03-04T15:55:58;97234.41;;;11.65;50.24
57086;BME280;42964;42.910;23.792;2023-03-04T16:00:58;97232.03;;;11.48;51.23
57086;BME280;42964;42.910;23.792;2023-03-04T16:05:57;97232.19;;;11.34;51.48
57086;BME280;42964;42.910;23.792;2023-03-04T16:10:55;97233.09;;;11.32;51.60
57086;BME280;42964;42.910;23.792;2023-03-04T16:15:54;97234.91;;;11.25;52.00
57086;BME280;42964;42.910;23.792;2023-03-04T16:20:53;97240.97;;;11.25;51.85
57086;BME280;42964;42.910;23.792;2023-03-04T16:25:53;97237.69;;;11.10;51.83
57086;BME280;42964;42.910;23.792;2023-03-04T16:30:53;97248.06;;;11.10;52.13
57086;BME280;42964;42.910;23.792;2023-03-04T16:35:52;97250.75;;;11.03;51.97
57086;BME280;42964;42.910;23.792;2023-03-04T16:40:51;97256.84;;;10.99;52.38
57086;BME280;42964;42.910;23.792;2023-03-04T16:45:50;97256.00;;;10.97;52.90
57086;BME280;42964;42.910;23.792;2023-03-04T16:50:49;97260.28;;;10.98;52.48
57086;BME280;42964;42.910;23.792;2023-03-04T16:55:49;97262.88;;;11.01;53.04
57086;BME280;42964;42.910;23.792;2023-03-04T17:00:48;97259.41;;;11.02;53.14
57086;BME280;42964;42.910;23.792;2023-03-04T17:05:47;97263.78;;;10.99;52.62
57086;BME280;42964;42.910;23.792;2023-03-04T17:10:46;97258.63;;;10.91;52.38
57086;BME280;42964;42.910;23.792;2023-03-04T17:15:46;97256.94;;;10.92;52.22
57086;BME280;42964;42.910;23.792;2023-03-04T17:20:45;97259.63;;;10.78;53.26
57086;BME280;42964;42.910;23.792;2023-03-04T17:25:44;97263.88;;;10.83;53.49
57086;BME280;42964;42.910;23.792;2023-03-04T17:30:43;97264.78;;;10.81;53.51
57086;BME280;42964;42.910;23.792;2023-03-04T17:35:43;97269.97;;;10.81;54.25
57086;BME280;42964;42.910;23.792;2023-03-04T17:40:42;97271.69;;;10.82;53.73
57086;BME280;42964;42.910;23.792;2023-03-04T17:45:42;97274.28;;;10.83;54.72
57086;BME280;42964;42.910;23.792;2023-03-04T17:50:50;97283.84;;;10.77;54.47
57086;BME280;42964;42.910;23.792;2023-03-04T17:55:53;97278.69;;;10.74;55.40
57086;BME280;42964;42.910;23.792;2023-03-04T18:00:58;97282.19;;;10.70;55.54
57086;BME280;42964;42.910;23.792;2023-03-04T18:05:57;97286.56;;;10.63;57.10
57086;BME280;42964;42.910;23.792;2023-03-04T18:10:56;97285.84;;;10.47;58.62
57086;BME280;42964;42.910;23.792;2023-03-04T18:15:55;97291.25;;;10.19;60.74
57086;BME280;42964;42.910;23.792;2023-03-04T18:20:57;97289.91;;;9.49;63.82
57086;BME280;42964;42.910;23.792;2023-03-04T18:25:56;97302.03;;;9.37;65.31
57086;BME280;42964;42.910;23.792;2023-03-04T18:30:55;97292.53;;;9.37;65.85
57086;BME280;42964;42.910;23.792;2023-03-04T18:36:03;97304.59;;;9.46;65.07
57086;BME280;42964;42.910;23.792;2023-03-04T18:41:05;97307.16;;;9.52;65.14
57086;BME280;42964;42.910;23.792;2023-03-04T18:51:15;97234.69;;;9.37;64.25
57086;BME280;42964;42.910;23.792;2023-03-04T18:56:19;97299.31;;;9.63;62.37
57086;BME280;42964;42.910;23.792;2023-03-04T19:01:22;97302.66;;;9.86;61.62
57086;BME280;42964;42.910;23.792;2023-03-04T19:06:22;97317.38;;;9.81;62.03
57086;BME280;42964;42.910;23.792;2023-03-04T19:11:21;97315.66;;;9.85;62.04
57086;BME280;42964;42.910;23.792;2023-03-04T19:16:22;97313.84;;;9.93;62.58
57086;BME280;42964;42.910;23.792;2023-03-04T19:21:22;97294.94;;;9.82;62.26
57086;BME280;42964;42.910;23.792;2023-03-04T19:26:21;97321.63;;;10.01;61.86
57086;BME280;42964;42.910;23.792;2023-03-04T19:31:19;97318.13;;;10.00;61.66
57086;BME280;42964;42.910;23.792;2023-03-04T19:36:18;97320.81;;;9.85;58.66
57086;BME280;42964;42.910;23.792;2023-03-04T19:41:17;97326.06;;;9.75;58.94
57086;BME280;42964;42.910;23.792;2023-03-04T19:46:16;97327.75;;;9.76;59.04
57086;BME280;42964;42.910;23.792;2023-03-04T19:51:18;97325.16;;;9.78;59.55
57086;BME280;42964;42.910;23.792;2023-03-04T19:56:18;97268.31;;;9.46;59.69
57086;BME280;42964;42.910;23.792;2023-03-04T20:01:21;97323.44;;;9.78;59.75
57086;BME280;42964;42.910;23.792;2023-03-04T20:06:25;97322.56;;;9.81;59.60
57086;BME280;42964;42.910;23.792;2023-03-04T20:11:25;97319.94;;;9.87;58.82
57086;BME280;42964;42.910;23.792;2023-03-04T20:16:26;97316.50;;;9.85;58.73
57086;BME280;42964;42.910;23.792;2023-03-04T20:21:28;97319.97;;;9.83;59.73
57086;BME280;42964;42.910;23.792;2023-03-04T20:26:28;97196.78;;;9.15;59.62
57086;BME280;42964;42.910;23.792;2023-03-04T20:31:30;97308.75;;;9.79;59.29
57086;BME280;42964;42.910;23.792;2023-03-04T20:36:29;97308.81;;;9.68;59.65
57086;BME280;42964;42.910;23.792;2023-03-04T20:41:28;97313.97;;;9.77;59.58
57086;BME280;42964;42.910;23.792;2023-03-04T20:46:36;97280.31;;;9.67;60.57
57086;BME280;42964;42.910;23.792;2023-03-04T20:51:38;97310.44;;;9.88;61.05
57086;BME280;42964;42.910;23.792;2023-03-04T20:56:37;97304.41;;;9.87;62.35
57086;BME280;42964;42.910;23.792;2023-03-04T21:01:38;97295.75;;;9.84;62.85
57086;BME280;42964;42.910;23.792;2023-03-04T21:06:38;97296.69;;;9.73;63.28
57086;BME280;42964;42.910;23.792;2023-03-04T21:11:38;97291.63;;;9.52;64.55
57086;BME280;42964;42.910;23.792;2023-03-04T21:16:38;97287.34;;;9.40;65.90
57086;BME280;42964;42.910;23.792;2023-03-04T21:21:37;97285.66;;;9.33;67.07
57086;BME280;42964;42.910;23.792;2023-03-04T21:26:36;97291.69;;;9.29;67.77
57086;BME280;42964;42.910;23.792;2023-03-04T21:31:38;97276.16;;;9.23;68.33
57086;BME280;42964;42.910;23.792;2023-03-04T21:36:37;97243.41;;;9.02;68.49
57086;BME280;42964;42.910;23.792;2023-03-04T21:41:36;97262.38;;;9.16;69.04
57086;BME280;42964;42.910;23.792;2023-03-04T21:46:35;97269.28;;;9.17;68.55
57086;BME280;42964;42.910;23.792;2023-03-04T21:51:34;97262.38;;;9.13;68.45
57086;BME280;42964;42.910;23.792;2023-03-04T21:56:34;97255.47;;;9.10;68.50
57086;BME280;42964;42.910;23.792;2023-03-04T22:01:34;97247.75;;;9.01;68.26
57086;BME280;42964;42.910;23.792;2023-03-04T22:06:33;97260.72;;;8.95;68.18
57086;BME280;42964;42.910;23.792;2023-03-04T22:11:32;97252.09;;;8.91;68.36
57086;BME280;42964;42.910;23.792;2023-03-04T22:16:32;97254.69;;;8.87;68.17
57086;BME280;42964;42.910;23.792;2023-03-04T22:21:31;97244.38;;;8.75;69.01
57086;BME280;42964;42.910;23.792;2023-03-04T22:26:30;97252.13;;;8.73;69.51
57086;BME280;42964;42.910;23.792;2023-03-04T22:31:33;97248.69;;;8.68;70.04
57086;BME280;42964;42.910;23.792;2023-03-04T22:36:35;97235.75;;;8.52;71.25
57086;BME280;42964;42.910;23.792;2023-03-04T22:41:35;97246.13;;;8.52;71.92
57086;BME280;42964;42.910;23.792;2023-03-04T22:46:37;97228.88;;;8.45;72.15
57086;BME280;42964;42.910;23.792;2023-03-04T22:51:37;97235.78;;;8.49;72.28
57086;BME280;42964;42.910;23.792;2023-03-04T22:56:39;97235.78;;;8.51;72.50
57086;BME280;42964;42.910;23.792;2023-03-04T23:01:37;97234.06;;;8.33;73.45
57086;BME280;42964;42.910;23.792;2023-03-04T23:06:37;97241.81;;;7.90;75.48
57086;BME280;42964;42.910;23.792;2023-03-04T23:11:35;97243.53;;;7.94;75.32
57086;BME280;42964;42.910;23.792;2023-03-04T23:16:38;97233.19;;;7.88;76.49
57086;BME280;42964;42.910;23.792;2023-03-04T23:21:41;97231.47;;;7.79;76.78
57086;BME280;42964;42.910;23.792;2023-03-04T23:26:41;97246.09;;;7.90;75.83
57086;BME280;42964;42.910;23.792;2023-03-04T23:31:40;97240.09;;;7.98;75.78
57086;BME280;42964;42.910;23.792;2023-03-04T23:36:40;97235.78;;;8.03;75.57
57086;BME280;42964;42.910;23.792;2023-03-04T23:41:40;97234.94;;;8.03;75.51
57086;BME280;42964;42.910;23.792;2023-03-04T23:46:39;97243.53;;;8.03;76.06
57086;BME280;42964;42.910;23.792;2023-03-04T23:51:38;97246.13;;;8.00;75.78
57086;BME280;42964;42.910;23.792;2023-03-04T23:56:39;97240.09;;;7.92;76.70
